Hubbard, Oregon
Current Conditions -  °F | °C
As of 11:53 AM on Saturday 25 Oct 2014 (Local Time) from KUAO Reporting Station
Overcast Overcast  
Wind Chill: 65°   Ceiling: 7000
Heat Index: 65°   Visibility: 10mi
Dew Point: 49°   Wind: 16mph
Humidity: 56%   Direction: 180°S
Pressure: 29.4"   Gusts: 32mph
Location:  45.18°N, 122.81°W
Report Text: KUAO 251853Z AUTO 18014G28KT 10SM BKN070 OVC090 18/09 A2940 RMK AO2 PK WND 17044/1822 RAE09 SLP955 P0000 T01830094 $
Loading
Personal Weather Stations






























Interactive Weather Map
Tropical Storm Tracking
New forecast layout! Learn more

10-Day Weather Forecast

Advertisements
Track Severe Weather on mobile